Latest Weather Observations for Albion Park

IDN60801

Issued at 2:32 pm EDT Friday 27 March 2015 (issued every 30 minutes, with the page automatically refreshed every 10 minutes)

About weather observations | Map of weather stations | Latest weather observations for NSW | Other Formats
Station Details ID: 068241 Name: WOLLONGONG AIRPORT Lat: -34.56 Lon: 150.79 Height: 8.0 m
Data from the previous 72 hours. | See also: Recent months at Albion Park
Date/Time
EDT
Temp
°C
App
Temp
°C
Dew
Point
Rel
Hum
%
Delta-T
°C
Wind Press
QNH
hPa
Press
MSL
hPa
Rain
since 9 am
mm
Dir
 
Spd
km/h
Gust
km/h
Spd
kts
Gust
kts
27/02:30pm 23.6 16.6 4.0 28 9.6 W 30 44 16 24 1017.0 1017.0 0.0
27/02:00pm 23.9 17.6 7.5 35 8.6 W 30 41 16 22 1017.6 1017.6 0.0
27/01:32pm 23.4 16.4 5.8 32 8.9 W 32 50 17 27 1017.9 1017.9 0.0
27/01:30pm 23.5 16.9 5.9 32 8.9 W 30 41 16 22 1017.9 1017.9 0.0
27/01:00pm 23.1 16.4 5.5 32 8.8 WSW 30 48 16 26 1018.3 1018.3 0.0
27/12:53pm 22.9 16.3 4.4 30 9.1 W 28 48 15 26 1018.2 1018.2 0.0
27/12:30pm 22.4 16.7 4.9 32 8.7 W 24 37 13 20 1018.5 1018.5 0.0
27/12:00pm 22.1 15.3 6.7 37 7.8 WSW 32 52 17 28 1018.8 1018.8 0.0
27/11:59am 22.0 15.1 6.3 36 8.0 WSW 32 52 17 28 1018.8 1018.8 0.0
27/11:51am 21.5 14.5 6.2 37 7.7 WSW 32 44 17 24 1019.0 1019.0 0.0
27/11:30am 21.0 12.7 6.2 38 7.4 W 39 48 21 26 1019.1 1019.1 0.0
27/11:09am 20.9 13.4 6.4 39 7.3 W 35 57 19 31 1019.1 1019.1 0.0
27/11:00am 20.3 12.7 5.9 39 7.1 W 35 52 19 28 1019.2 1019.2 0.0
27/10:30am 19.6 11.3 6.0 41 6.7 W 39 59 21 32 1019.4 1019.4 0.0
27/10:00am 19.1 11.7 6.9 45 6.1 W 35 56 19 30 1019.5 1019.5 0.0
27/09:53am 18.5 10.3 5.0 41 6.5 W 37 56 20 30 1019.4 1019.4 0.0
27/09:30am 18.2 10.1 5.1 42 6.3 W 37 48 20 26 1019.3 1019.3 0.0
27/09:06am 17.6 8.9 4.2 41 6.3 W 39 57 21 31 1019.3 1019.3 0.0
27/09:00am 17.4 9.1 4.0 41 6.3 W 37 46 20 25 1019.2 1019.2 -
27/08:38am 16.7 7.5 3.7 42 6.0 W 41 59 22 32 1019.2 1019.2 -
27/08:30am 16.5 6.4 3.6 42 6.0 W 46 61 25 33 1019.1 1019.1 -
27/08:04am 16.0 8.8 3.1 42 5.9 WSW 30 54 16 29 1018.9 1018.9 -
27/08:00am 15.8 8.3 3.3 43 5.7 WSW 32 48 17 26 1018.9 1018.9 -
27/07:35am 15.4 7.6 2.9 43 5.6 W 33 54 18 29 1018.5 1018.5 -
27/07:30am 15.4 7.2 2.9 43 5.6 W 35 48 19 26 1018.6 1018.6 -
27/07:08am 15.4 8.1 2.6 42 5.7 W 30 54 16 29 1018.4 1018.4 -
27/07:00am 15.1 7.9 3.0 44 5.4 W 30 44 16 24 1018.6 1018.6 -
27/06:38am 15.6 5.3 2.4 41 5.9 W 46 65 25 35 1017.8 1017.8 -
27/06:30am 15.4 4.3 2.2 41 5.9 W 50 65 27 35 1017.5 1017.5 -
27/06:04am 15.3 3.1 2.5 42 5.7 W 56 74 30 40 1017.2 1017.2 -
27/06:00am 15.4 3.0 2.6 42 5.7 W 57 74 31 40 1017.1 1017.1 -
27/05:30am 15.5 3.0 2.0 40 6.0 W 57 76 31 41 1016.5 1016.5 -
27/05:05am 15.7 4.1 1.8 39 6.1 W 52 70 28 38 1017.0 1017.0 -
27/05:00am 15.5 4.3 2.0 40 6.0 W 50 65 27 35 1017.1 1017.1 -
27/04:36am 15.8 4.9 1.5 38 6.3 W 48 69 26 37 1017.5 1017.5 -
27/04:30am 15.7 4.8 1.4 38 6.3 W 48 61 26 33 1017.6 1017.6 -
27/04:00am 15.7 4.1 1.4 38 6.2 W 52 67 28 36 1017.8 1017.8 -
27/03:30am 15.4 5.5 1.5 39 6.1 W 43 56 23 30 1018.0 1018.0 -
27/03:08am 15.8 6.1 0.8 36 6.5 WSW 41 69 22 37 1018.3 1018.3 -
27/03:00am 15.4 7.3 1.2 38 6.2 WSW 33 50 18 27 1018.6 1018.6 0.0
27/02:38am 16.0 8.8 0.6 35 6.6 WSW 28 46 15 25 1018.8 1018.8 -
27/02:30am 15.9 9.1 0.9 36 6.5 WSW 26 39 14 21 1019.1 1019.1 -
27/02:00am 15.8 11.1 0.8 36 6.5 W 15 26 8 14 1019.4 1019.4 -
27/01:30am 15.5 10.4 0.9 37 6.3 W 17 26 9 14 1019.9 1019.9 -
27/01:00am 15.5 9.5 1.3 38 6.2 W 22 30 12 16 1019.9 1019.9 -
27/12:30am 15.2 9.3 1.4 39 6.0 WNW 22 35 12 19 1019.8 1019.8 -
27/12:00am 16.0 8.8 1.0 36 6.5 WNW 28 35 15 19 1019.8 1019.8 -
 
Date/Time
EDT
Temp
°C
App
Temp
°C
Dew
Point
Rel
Hum
%
Delta-T
°C
Wind Press
QNH
hPa
Press
MSL
hPa
Rain
since 9 am
mm
Dir
 
Spd
km/h
Gust
km/h
Spd
kts
Gust
kts
26/11:30pm 16.7 8.6 0.8 34 6.9 W 33 44 18 24 1019.5 1019.5 -
26/11:00pm 16.7 9.6 1.2 35 6.8 W 28 35 15 19 1019.6 1019.6 -
26/10:30pm 16.2 9.2 2.2 39 6.3 W 28 35 15 19 1019.5 1019.5 -
26/10:00pm 16.4 11.2 2.4 39 6.3 W 19 22 10 12 1019.5 1019.5 -
26/09:30pm 17.7 12.3 2.5 36 6.9 W 20 26 11 14 1019.3 1019.3 -
26/09:00pm 17.9 13.7 5.5 44 6.0 W 17 24 9 13 1019.2 1019.2 -
26/08:30pm 17.7 15.1 7.7 52 5.1 WSW 11 19 6 10 1018.6 1018.6 -
26/08:00pm 20.0 16.3 6.4 41 6.8 W 15 24 8 13 1017.9 1017.9 -
26/07:30pm 20.4 16.8 6.7 41 6.9 WSW 15 22 8 12 1017.3 1017.3 -
26/07:00pm 21.1 16.7 6.6 39 7.3 W 19 24 10 13 1016.7 1016.7 -
26/06:30pm 23.2 18.6 6.5 34 8.5 WNW 20 32 11 17 1015.9 1015.9 -
26/06:00pm 24.3 17.6 5.6 30 9.5 W 30 44 16 24 1015.5 1015.5 -
26/05:58pm 24.4 18.0 5.2 29 9.7 W 28 44 15 24 1015.4 1015.4 -
26/05:57pm 24.4 16.7 5.2 29 9.7 W 35 44 19 24 1015.4 - -
26/05:30pm 25.2 20.7 6.9 31 9.6 WNW 20 24 11 13 1015.0 1015.0 -
26/05:06pm 24.9 18.6 5.7 29 9.8 WNW 28 48 15 26 1014.9 1014.9 -
26/05:00pm 25.5 20.2 6.7 30 9.8 WNW 24 32 13 17 1014.8 1014.8 -
26/04:30pm 25.4 19.7 6.6 30 9.8 WNW 26 35 14 19 1014.7 1014.7 -
26/04:11pm 25.0 18.8 6.2 30 9.7 WNW 28 46 15 25 1014.8 - -
26/04:10pm 25.1 18.9 6.3 30 9.7 WNW 28 46 15 25 1014.8 1014.8 -
26/04:00pm 25.4 20.8 8.0 33 9.3 W 22 32 12 17 1014.8 1014.8 -
26/03:30pm 24.6 20.0 6.4 31 9.4 NW 20 33 11 18 1015.0 1015.0 -
26/03:00pm 24.3 18.4 5.6 30 9.5 WNW 26 39 14 21 1015.4 1015.4 -
26/01:00pm 23.7 19.8 6.9 34 8.7 NW 17 28 9 15 1016.3 1016.3 0.0
26/12:30pm 23.5 17.9 7.2 35 8.5 WNW 26 35 14 19 1016.8 1016.8 0.0
26/12:00pm 23.2 17.5 6.9 35 8.4 W 26 37 14 20 1017.1 1017.1 0.0
26/11:30am 23.2 19.4 9.9 43 7.3 NW 20 30 11 16 1017.3 1017.3 0.0
26/11:00am 22.9 17.4 9.0 41 7.4 W 28 35 15 19 1017.5 1017.5 0.0
26/10:30am 22.8 19.8 10.6 46 6.7 W 17 22 9 12 1017.6 1017.6 0.0
26/10:00am 21.4 19.0 9.9 48 6.2 WSW 13 22 7 12 1017.7 1017.7 0.0
26/09:30am 20.5 17.5 9.1 48 6.0 WSW 15 20 8 11 1017.9 1017.9 0.0
26/09:00am 19.3 16.3 10.8 58 4.6 WSW 17 22 9 12 1017.8 1017.8 0.0
26/08:30am 17.7 15.7 12.8 73 2.7 WSW 15 17 8 9 1017.6 1017.6 0.0
26/08:00am 15.9 14.3 12.8 82 1.7 W 13 15 7 8 1017.4 1017.4 0.0
26/07:30am 14.4 13.0 13.4 94 0.6 W 13 17 7 9 1017.3 1017.3 0.0
26/07:00am 13.2 12.0 12.9 98 0.2 W 11 15 6 8 1017.2 1017.2 0.0
26/06:30am 13.4 14.3 12.9 97 0.3 CALM 0 6 0 3 1017.0 1017.0 0.0
26/06:00am 13.8 14.8 13.3 97 0.3 CALM 0 0 0 0 1016.8 1016.8 0.0
26/05:30am 14.1 15.2 13.5 96 0.3 CALM 0 0 0 0 1016.7 1016.7 0.0
26/05:00am 14.4 15.5 13.6 95 0.4 CALM 0 0 0 0 1016.7 1016.7 0.0
26/04:30am 14.9 16.1 13.8 93 0.6 CALM 0 6 0 3 1016.8 1016.8 0.0
26/04:00am 15.5 15.2 14.4 93 0.6 WSW 9 13 5 7 1016.7 1016.7 0.0
26/03:30am 15.5 15.2 14.4 93 0.6 WSW 9 15 5 8 1016.8 1016.8 0.0
26/03:00am 15.4 15.4 14.1 92 0.7 W 7 9 4 5 1016.9 1016.9 0.0
26/02:30am 16.1 16.3 14.3 89 1.0 W 6 7 3 4 1017.1 1017.1 0.0
26/02:00am 16.3 16.5 14.8 91 0.9 W 7 9 4 5 1017.6 1017.6 0.0
26/01:30am 17.1 18.9 15.6 91 0.9 CALM 0 0 0 0 1017.5 1017.5 0.0
26/01:00am 17.1 17.8 15.6 91 0.9 W 6 7 3 4 1017.5 1017.5 0.0
26/12:30am 17.1 18.9 15.4 90 1.0 CALM 0 0 0 0 1017.7 1017.7 0.0
26/12:00am 17.1 18.4 15.1 88 1.2 W 2 6 1 3 1017.9 1017.9 0.0
 
Date/Time
EDT
Temp
°C
App
Temp
°C
Dew
Point
Rel
Hum
%
Delta-T
°C
Wind Press
QNH
hPa
Press
MSL
hPa
Rain
since 9 am
mm
Dir
 
Spd
km/h
Gust
km/h
Spd
kts
Gust
kts
25/11:30pm 17.3 17.6 15.1 87 1.3 W 7 11 4 6 1018.2 1018.2 0.0
25/11:00pm 17.5 18.1 15.8 90 1.0 W 7 9 4 5 1018.3 1018.3 0.0
25/10:30pm 17.5 17.6 15.5 88 1.2 WNW 9 11 5 6 1018.4 1018.4 0.0
25/10:00pm 17.7 17.6 15.9 89 1.1 WNW 11 11 6 6 1018.4 1018.4 0.0
25/09:30pm 18.2 18.1 16.0 87 1.3 W 11 13 6 7 1018.3 1018.3 0.0
25/09:00pm 18.5 19.1 15.4 82 1.8 W 6 7 3 4 1018.2 1018.2 0.0
25/08:30pm 19.0 19.7 16.0 83 1.8 NW 7 9 4 5 1017.9 1017.9 0.0
25/08:00pm 19.4 19.7 14.4 73 2.9 SE 6 7 3 4 1017.5 1017.5 0.0
25/07:30pm 19.7 19.4 14.3 71 3.1 ESE 9 11 5 6 1017.2 1017.2 0.0
25/07:00pm 19.8 21.1 14.2 70 3.2 CALM 0 7 0 4 1017.4 1017.4 0.0
25/06:30pm 19.9 19.4 13.8 68 3.5 SE 9 13 5 7 1017.2 1017.2 0.0
25/06:00pm 20.1 19.4 14.2 69 3.4 SE 11 19 6 10 1016.9 1016.9 0.0
25/05:30pm 20.2 18.8 14.6 70 3.3 ESE 15 19 8 10 1017.0 1017.0 0.0
25/05:00pm 20.5 19.4 14.4 68 3.5 SE 13 20 7 11 1016.8 1016.8 0.0
25/04:30pm 20.7 18.7 13.9 65 3.9 SE 17 28 9 15 1016.8 1016.8 0.0
25/04:00pm 20.7 18.9 13.4 63 4.2 SE 15 26 8 14 1016.7 1016.7 0.0
25/03:30pm 21.4 18.8 13.3 60 4.6 SE 19 32 10 17 1016.7 1016.7 0.0
25/03:00pm 20.9 18.0 14.1 65 3.9 SSE 22 32 12 17 1016.7 1016.7 0.0
25/02:30pm 21.3 19.0 14.0 63 4.2 SSE 19 30 10 16 1016.9 1016.9 0.0
25/02:00pm 21.9 20.6 13.8 60 4.7 SSE 13 19 7 10 1017.0 1017.0 0.0
25/01:30pm 21.3 20.3 13.5 61 4.5 SSE 11 17 6 9 1017.3 1017.3 0.0
25/01:00pm 21.8 19.8 13.9 61 4.6 S 17 22 9 12 1017.6 1017.6 0.0
25/12:30pm 21.7 20.1 13.9 61 4.5 SSE 15 24 8 13 1017.6 1017.6 0.0
25/12:00pm 21.7 20.0 14.6 64 4.2 S 17 26 9 14 1017.6 1017.6 0.0
25/11:30am 21.5 19.8 14.6 65 4.1 S 17 24 9 13 1017.4 1017.4 0.0
25/11:00am 20.8 18.7 13.7 64 4.1 S 17 26 9 14 1017.4 1017.4 0.0
25/10:30am 20.0 16.2 12.5 62 4.2 SSW 24 32 13 17 1017.6 1017.6 0.0
25/10:00am 19.8 17.0 12.6 63 4.0 SW 19 32 10 17 1017.5 1017.5 0.0
25/09:30am 19.4 16.5 12.9 66 3.7 SSW 20 30 11 16 1017.5 1017.5 0.0
25/09:00am 18.7 16.5 12.0 65 3.7 SW 15 24 8 13 1017.3 1017.3 0.0
25/08:30am 18.3 15.2 12.3 68 3.3 SW 20 32 11 17 1016.9 1016.9 0.0
25/08:00am 17.6 13.8 12.3 71 2.9 SW 24 39 13 21 1016.5 1016.5 0.0
25/07:30am 17.1 14.1 12.0 72 2.8 SW 19 28 10 15 1016.0 1016.0 0.0
25/07:00am 17.0 14.0 12.1 73 2.7 SW 19 33 10 18 1015.4 1015.4 0.0
25/06:30am 16.8 14.7 12.5 76 2.4 SW 15 22 8 12 1015.1 1015.1 0.0
25/06:00am 17.2 15.1 12.3 73 2.7 WSW 15 24 8 13 1015.1 1015.1 0.0
25/05:30am 17.1 15.4 12.4 74 2.6 SW 13 24 7 13 1014.8 1014.8 0.0
25/05:00am 17.4 14.4 12.5 73 2.7 SSW 20 39 11 21 1014.4 1014.4 0.0
25/04:30am 17.7 14.1 13.2 75 2.5 SSW 24 33 13 18 1014.3 1014.3 0.0
25/04:00am 17.6 15.4 13.3 76 2.4 SSW 17 26 9 14 1014.2 1014.2 0.0
25/03:30am 17.7 14.2 13.4 76 2.4 SSW 24 35 13 19 1014.1 1014.1 0.0
25/03:00am 17.4 15.0 13.9 80 2.0 SSW 19 32 10 17 1014.1 1014.1 0.0
25/02:30am 17.6 16.1 14.3 81 1.9 SW 15 28 8 15 1014.1 1014.1 0.0
25/02:00am 16.6 16.8 14.1 85 1.4 WSW 6 9 3 5 1014.2 1014.2 0.0
25/01:30am 17.6 16.1 14.3 81 1.9 SW 15 26 8 14 1014.0 1014.0 0.0
25/01:00am 17.5 16.8 14.4 82 1.8 SW 11 24 6 13 1013.9 1013.9 0.0
25/12:30am 18.3 16.6 14.8 80 2.0 SW 17 24 9 13 1013.6 1013.6 0.0
25/12:00am 18.1 16.2 15.7 86 1.4 S 20 28 11 15 1013.4 1013.4 0.0
 
Date/Time
EDT
Temp
°C
App
Temp
°C
Dew
Point
Rel
Hum
%
Delta-T
°C
Wind Press
QNH
hPa
Press
MSL
hPa
Rain
since 9 am
mm
Dir
 
Spd
km/h
Gust
km/h
Spd
kts
Gust
kts
24/11:30pm 17.9 17.2 16.4 91 0.9 SSE 15 20 8 11 1013.4 1013.4 0.0
24/11:00pm 18.4 17.5 16.9 91 0.9 SSE 17 26 9 14 1013.4 1013.4 0.0
24/10:43pm 18.7 17.4 17.2 91 0.9 SSE 20 26 11 14 1013.3 1013.3 0.0
24/10:30pm 18.8 18.2 17.5 92 0.8 S 17 22 9 12 1013.4 1013.4 0.0
24/10:11pm 18.8 18.7 17.8 94 0.6 S 15 20 8 11 1013.1 1013.1 0.0
24/10:00pm 18.7 19.6 18.4 98 0.2 SSW 11 17 6 9 1013.1 1013.1 0.0
24/09:30pm 19.0 22.2 18.8 99 0.1 CALM 0 0 0 0 1012.5 1012.5 0.0
24/09:00pm 19.1 21.9 18.9 99 0.1 SSW 2 7 1 4 1012.3 1012.3 0.0
24/08:30pm 19.1 22.3 18.9 99 0.1 CALM 0 6 0 3 1012.2 1012.2 0.0
24/08:00pm 19.1 21.0 18.9 99 0.1 SSW 7 9 4 5 1011.6 1011.6 0.0
24/07:30pm 19.6 23.0 19.3 98 0.2 CALM 0 4 0 2 1011.0 1011.0 0.0
24/07:00pm 19.5 22.1 19.2 98 0.2 SSW 4 6 2 3 1010.4 1010.4 0.0
24/06:51pm 19.7 22.4 19.4 98 0.2 SSW 4 7 2 4 1010.4 1010.4 0.0
24/06:30pm 19.9 22.3 19.7 99 0.1 SSW 6 9 3 5 1010.3 1010.3 0.0
24/06:16pm 19.8 23.3 19.6 99 0.1 CALM 0 0 0 0 1010.4 1010.4 0.0
24/06:04pm 19.8 23.3 19.5 98 0.2 CALM 0 0 0 0 1010.3 1010.3 0.0
24/06:00pm 19.9 23.4 19.6 98 0.2 CALM 0 0 0 0 1010.2 1010.2 0.0
24/05:30pm 19.7 21.9 19.5 99 0.1 SSW 7 9 4 5 1010.1 1010.1 0.0
24/05:00pm 19.7 22.0 19.5 99 0.1 SSE 6 7 3 4 1009.8 1009.8 0.0
24/04:57pm 19.5 21.7 19.3 99 0.1 SE 6 7 3 4 1009.8 1009.8 0.0
24/04:30pm 19.3 22.2 19.1 99 0.1 S 2 7 1 4 1010.2 1010.2 0.0
24/04:09pm 19.4 21.6 19.2 99 0.1 SE 6 9 3 5 1010.1 1010.1 0.0
24/04:01pm 19.3 21.5 19.1 99 0.1 SSE 6 7 3 4 1010.3 1010.3 0.0
24/04:00pm 19.4 21.6 19.2 99 0.1 SSE 6 7 3 4 1010.3 1010.3 0.0
24/03:31pm 19.3 22.6 19.1 99 0.1 CALM 0 6 0 3 1010.6 1010.6 0.0
24/03:30pm 19.3 22.2 19.1 99 0.1 SE 2 6 1 3 1010.6 1010.6 0.0
24/03:00pm 19.3 20.5 19.1 99 0.1 S 11 15 6 8 1010.5 1010.5 0.0
24/02:58pm 19.4 21.0 19.2 99 0.1 S 9 15 5 8 1010.5 1010.5 0.0
24/02:50pm 19.3 21.3 19.1 99 0.1 S 7 9 4 5 1010.8 1010.8 0.0
24/02:38pm 19.4 21.0 19.2 99 0.1 S 9 13 5 7 1010.8 1010.8 0.0

Other Formats:

Comma delimited format used in spreadsheet applications
http://www.bom.gov.au/fwo/IDN60801/IDN60801.95748.axf

JavaScript Object Notation format (JSON) in row-major order
http://www.bom.gov.au/fwo/IDN60801/IDN60801.95748.json